Time;durP1;ratioP1;P1;durP2;ratioP2;P2;SDS_P1;SDS_P2;PMS_P1;PMS_P2;Temp;Humidity;BMP_temperature;BMP_pressure;BME280_temperature;BME280_humidity;BME280_pressure;Samples;Min_cycle;Max_cycle;Signal;HPM_P1;HPM_P2
2023/06/04 00:02:11;;;;;;;7.60;4.30;;;;;;;9.87;67.22;99324.36;109102;1253;59092;-72
2023/06/04 00:04:37;;;;;;;10.10;4.50;;;;;;;9.88;67.29;99322.20;109342;1254;59049;-72
2023/06/04 00:07:05;;;;;;;6.30;4.00;;;;;;;9.86;67.55;99321.04;109388;1254;66694;-72
2023/06/04 00:09:31;;;;;;;6.90;3.80;;;;;;;9.83;67.63;99315.22;109080;1254;61133;-72
2023/06/04 00:11:58;;;;;;;5.70;3.80;;;;;;;9.78;67.93;99316.03;109376;1254;64065;-71
2023/06/04 00:14:25;;;;;;;5.90;3.80;;;;;;;9.71;68.17;99310.93;109382;1254;58937;-72
2023/06/04 00:16:51;;;;;;;8.30;4.30;;;;;;;9.65;68.45;99306.45;109406;1254;58975;-72
2023/06/04 00:19:18;;;;;;;7.20;3.90;;;;;;;9.61;68.63;99309.58;109394;1254;66802;-72
2023/06/04 00:21:45;;;;;;;6.90;4.80;;;;;;;9.55;68.78;99308.31;109377;1254;60736;-72
2023/06/04 00:24:14;;;;;;;6.70;4.20;;;;;;;9.53;69.10;99307.22;109372;1254;65046;-72
2023/06/04 00:26:41;;;;;;;5.60;4.00;;;;;;;9.49;69.31;99305.27;109374;1253;59041;-72
2023/06/04 00:29:08;;;;;;;8.20;4.70;;;;;;;9.47;69.58;99307.54;109415;1254;58946;-71
2023/06/04 00:31:35;;;;;;;9.60;4.50;;;;;;;9.40;70.11;99307.56;109381;1253;65784;-73
2023/06/04 00:34:04;;;;;;;6.40;4.10;;;;;;;9.33;70.33;99308.16;109368;1254;60030;-72
2023/06/04 00:36:30;;;;;;;7.60;4.40;;;;;;;9.27;70.90;99311.17;109028;1254;64062;-72
2023/06/04 00:38:57;;;;;;;7.80;4.20;;;;;;;9.20;71.50;99309.25;109362;1253;58955;-72
2023/06/04 00:41:23;;;;;;;7.10;4.90;;;;;;;9.13;72.32;99304.50;109387;1253;58971;-72
2023/06/04 00:43:55;;;;;;;5.80;4.70;;;;;;;9.08;72.76;99303.91;109372;1254;66089;-72
2023/06/04 00:46:26;;;;;;;8.40;6.40;;;;;;;9.04;73.12;99307.15;109383;1253;61617;-71
2023/06/04 00:48:54;;;;;;;9.10;7.30;;;;;;;8.99;73.57;99307.38;109347;1254;64066;-73
2023/06/04 00:51:22;;;;;;;8.90;6.20;;;;;;;8.95;73.97;99303.34;109345;1254;58948;-70
2023/06/04 00:53:52;;;;;;;8.00;5.90;;;;;;;8.94;74.21;99302.04;109357;1254;59584;-72
2023/06/04 00:56:19;;;;;;;7.30;5.40;;;;;;;8.91;74.53;99302.01;109114;1254;64728;-72
2023/06/04 00:58:46;;;;;;;8.10;5.30;;;;;;;8.87;75.03;99296.02;109341;1253;59846;-72
2023/06/04 01:01:51;;;;;;;9.60;5.70;;;;;;;8.83;75.44;99294.80;109376;1254;65103;-72
2023/06/04 01:04:27;;;;;;;8.80;5.50;;;;;;;8.80;76.15;99296.04;108696;1264;59008;-72
2023/06/04 01:06:57;;;;;;;7.90;5.20;;;;;;;8.77;76.50;99295.67;108617;1264;59033;-72
2023/06/04 01:09:27;;;;;;;9.50;5.60;;;;;;;8.77;76.65;99296.35;108590;1262;66283;-73
2023/06/04 01:11:54;;;;;;;9.40;5.60;;;;;;;8.78;77.08;99297.04;108714;1263;60750;-72
2023/06/04 01:14:21;;;;;;;8.50;6.40;;;;;;;8.76;77.35;99294.10;108709;1264;64750;-71
2023/06/04 01:17:02;;;;;;;10.60;6.80;;;;;;;8.76;77.40;99293.61;108682;1263;59435;-72
2023/06/04 01:20:04;;;;;;;8.60;5.70;;;;;;;8.75;77.80;99294.88;108696;1262;59147;-72
2023/06/04 01:23:01;;;;;;;9.10;5.70;;;;;;;8.73;78.16;99292.70;108655;1263;67149;-71
2023/06/04 01:25:43;;;;;;;8.70;5.50;;;;;;;8.72;78.54;99292.41;108702;1264;61284;-72
2023/06/04 01:28:12;;;;;;;8.70;5.40;;;;;;;8.73;78.79;99293.05;108715;1263;63816;-71
2023/06/04 01:30:45;;;;;;;8.70;5.90;;;;;;;8.74;78.66;99295.98;108567;1263;59032;-70
2023/06/04 01:33:13;;;;;;;8.60;5.70;;;;;;;8.73;78.81;99296.23;108709;1264;59058;-71
2023/06/04 01:35:40;;;;;;;9.80;6.20;;;;;;;8.71;78.98;99294.56;108704;1263;67072;-72
2023/06/04 01:38:07;;;;;;;7.70;6.10;;;;;;;8.69;79.09;99291.83;108681;1262;59780;-72
2023/06/04 01:40:34;;;;;;;10.40;6.00;;;;;;;8.67;79.33;99292.65;108951;1254;64809;-70
2023/06/04 01:43:00;;;;;;;7.10;5.80;;;;;;;8.65;79.88;99294.02;109267;1254;59107;-73
2023/06/04 01:45:28;;;;;;;7.80;5.30;;;;;;;8.63;79.95;99292.73;109245;1254;59351;-72
2023/06/04 01:47:55;;;;;;;7.20;5.40;;;;;;;8.62;80.10;99294.38;109265;1254;66944;-71
2023/06/04 01:50:22;;;;;;;8.60;5.10;;;;;;;8.62;80.33;99292.98;109306;1254;61515;-71
2023/06/04 01:52:49;;;;;;;6.60;4.50;;;;;;;8.60;80.54;99292.36;109288;1254;63969;-72
2023/06/04 01:55:17;;;;;;;8.10;5.50;;;;;;;8.57;80.98;99287.20;109250;1254;59148;-72
2023/06/04 01:57:45;;;;;;;5.70;4.30;;;;;;;8.54;81.19;99288.04;109286;1254;59046;-72
2023/06/04 02:00:33;;;;;;;7.50;4.90;;;;;;;8.52;81.42;99283.70;109266;1254;67242;-71
2023/06/04 02:02:59;;;;;;;7.30;5.20;;;;;;;8.50;81.71;99285.63;109251;1254;61257;-72
2023/06/04 02:05:26;;;;;;;5.50;4.60;;;;;;;8.48;81.70;99285.05;109215;1254;64011;-71
2023/06/04 02:07:53;;;;;;;6.80;4.60;;;;;;;8.46;82.33;99283.00;109062;1254;59021;-71
2023/06/04 02:10:20;;;;;;;7.20;4.80;;;;;;;8.44;82.44;99282.60;109288;1254;59205;-71
2023/06/04 02:12:57;;;;;;;8.00;4.70;;;;;;;8.42;82.64;99283.73;109286;1254;67043;-72
2023/06/04 02:15:25;;;;;;;7.70;4.60;;;;;;;8.41;82.81;99283.81;109323;1254;60605;-72
2023/06/04 02:17:58;;;;;;;5.40;4.30;;;;;;;8.38;83.19;99285.02;109045;1254;64835;-70
2023/06/04 02:20:26;;;;;;;5.30;4.60;;;;;;;8.34;83.61;99285.90;109256;1254;58963;-71
2023/06/04 02:22:54;;;;;;;9.30;5.00;;;;;;;8.32;84.05;99286.34;109286;1254;59028;-72
2023/06/04 02:25:22;;;;;;;6.50;4.70;;;;;;;8.32;84.10;99286.55;109264;1254;67312;-71
2023/06/04 02:27:48;;;;;;;8.90;4.90;;;;;;;8.30;84.49;99284.89;109022;1254;60012;-71
2023/06/04 02:30:16;;;;;;;6.70;4.70;;;;;;;8.27;84.63;99283.23;109364;1253;64853;-71
2023/06/04 02:32:44;;;;;;;6.90;4.60;;;;;;;8.24;85.08;99289.64;109369;1253;59032;-70
2023/06/04 02:35:11;;;;;;;7.00;4.70;;;;;;;8.21;85.65;99288.91;109370;1253;59035;-73
2023/06/04 02:37:37;;;;;;;8.70;4.80;;;;;;;8.18;85.60;99287.98;109362;1253;66100;-72
2023/06/04 02:40:04;;;;;;;8.00;4.90;;;;;;;8.17;85.58;99292.29;109342;1253;61059;-72
2023/06/04 02:42:31;;;;;;;8.50;4.40;;;;;;;8.19;86.12;99291.50;109054;1253;65295;-72
2023/06/04 02:44:57;;;;;;;7.40;5.00;;;;;;;8.20;86.38;99289.48;109404;1253;59277;-72
2023/06/04 02:47:24;;;;;;;6.10;4.90;;;;;;;8.20;86.41;99289.15;109372;1253;58965;-72
2023/06/04 02:49:51;;;;;;;7.70;4.80;;;;;;;8.19;87.26;99287.94;109373;1253;66985;-71
2023/06/04 02:52:17;;;;;;;7.50;4.60;;;;;;;8.19;87.50;99282.65;109366;1253;60134;-72
2023/06/04 02:54:44;;;;;;;8.00;5.00;;;;;;;8.21;87.80;99284.67;109326;1253;64733;-73
2023/06/04 02:57:10;;;;;;;7.90;4.50;;;;;;;8.23;87.87;99284.36;109355;1253;59003;-71
2023/06/04 02:59:37;;;;;;;9.60;4.60;;;;;;;8.26;88.18;99283.16;109060;1253;59039;-71
2023/06/04 03:02:04;;;;;;;6.80;5.00;;;;;;;8.28;88.63;99286.39;109379;1253;67020;-71
2023/06/04 03:04:34;;;;;;;7.40;4.40;;;;;;;8.30;89.13;99283.98;109374;1253;60229;-71
2023/06/04 03:07:02;;;;;;;7.00;4.50;;;;;;;8.33;89.27;99286.64;109374;1253;64884;-71
2023/06/04 03:09:30;;;;;;;8.20;5.10;;;;;;;8.39;89.90;99283.38;109344;1253;58990;-71
2023/06/04 03:12:00;;;;;;;6.50;4.80;;;;;;;8.44;90.03;99282.56;109380;1253;58959;-72
2023/06/04 03:14:32;;;;;;;;;;;;;;;8.50;90.07;99285.78;109346;1254;67254;-71
2023/06/04 03:17:07;;;;;;;7.70;4.60;;;;;;;8.56;90.37;99287.06;109384;1253;60188;-71
2023/06/04 03:19:38;;;;;;;6.80;5.20;;;;;;;8.65;89.89;99291.58;109305;1253;65353;-71
2023/06/04 03:22:05;;;;;;;8.50;5.20;;;;;;;8.73;89.52;99293.04;109329;1253;59070;-71
2023/06/04 03:24:38;;;;;;;6.60;4.90;;;;;;;9.18;88.94;99288.03;109363;1253;59108;-71
2023/06/04 03:27:07;;;;;;;6.50;4.50;;;;;;;10.37;85.69;99286.37;109327;1253;66726;-71
2023/06/04 03:29:35;;;;;;;5.20;4.30;;;;;;;11.42;81.83;99282.23;109384;1253;60200;-71
2023/06/04 03:32:02;;;;;;;8.10;4.90;;;;;;;12.30;78.46;99279.73;109333;1253;63727;-71
2023/06/04 03:34:31;;;;;;;8.00;4.60;;;;;;;13.13;76.06;99275.94;109364;1253;58926;-72
2023/06/04 03:36:58;;;;;;;6.30;5.00;;;;;;;13.95;73.74;99277.50;109392;1253;59014;-72
2023/06/04 03:39:24;;;;;;;6.60;4.40;;;;;;;14.74;71.87;99277.80;109334;1253;66958;-72
2023/06/04 03:41:51;;;;;;;7.20;4.60;;;;;;;15.42;69.24;99275.90;109339;1253;60917;-72
2023/06/04 03:44:18;;;;;;;6.80;5.40;;;;;;;16.01;67.39;99275.11;109330;1253;65165;-72
2023/06/04 03:46:45;;;;;;;6.00;4.60;;;;;;;16.54;65.77;99272.79;109375;1253;59042;-72
2023/06/04 03:49:13;;;;;;;6.00;4.40;;;;;;;17.02;63.74;99276.48;109226;1253;58966;-72
2023/06/04 03:51:41;;;;;;;6.50;4.60;;;;;;;17.45;62.50;99271.66;109395;1253;66505;-71
2023/06/04 03:54:08;;;;;;;9.10;4.50;;;;;;;17.81;60.92;99275.23;109383;1253;69226;-72
2023/06/04 03:56:35;;;;;;;6.20;4.30;;;;;;;18.17;59.73;99275.06;109109;1253;64123;-71
2023/06/04 03:59:01;;;;;;;5.40;4.00;;;;;;;18.60;58.62;99276.46;109369;1253;59041;-72
2023/06/04 04:01:28;;;;;;;6.70;3.60;;;;;;;19.05;57.19;99274.83;109365;1253;58862;-71
2023/06/04 04:03:55;;;;;;;5.20;4.40;;;;;;;19.39;55.91;99268.20;109378;1253;67054;-72
2023/06/04 04:06:21;;;;;;;6.60;4.30;;;;;;;19.76;54.91;99269.23;109408;1253;60046;-72
2023/06/04 04:08:48;;;;;;;5.20;3.90;;;;;;;20.02;53.18;99272.59;109354;1253;65234;-72
2023/06/04 04:11:16;;;;;;;5.80;4.60;;;;;;;20.17;52.81;99271.90;109318;1253;58969;-72
2023/06/04 04:13:45;;;;;;;4.60;3.90;;;;;;;20.50;51.73;99273.80;109344;1253;59338;-72
2023/06/04 04:16:12;;;;;;;5.90;3.80;;;;;;;20.60;50.59;99274.77;109353;1253;66023;-72
2023/06/04 04:18:42;;;;;;;6.90;4.30;;;;;;;20.53;50.01;99273.05;109356;1253;60792;-72
2023/06/04 04:21:08;;;;;;;;;;;;;;;20.52;49.75;99264.77;109379;1253;64242;-72
2023/06/04 04:23:35;;;;;;;6.40;4.10;;;;;;;20.64;49.33;99265.71;109387;1253;59201;-72
2023/06/04 04:26:02;;;;;;;4.70;3.80;;;;;;;20.71;48.30;99262.43;109366;1253;58999;-72
2023/06/04 04:28:29;;;;;;;4.30;3.90;;;;;;;20.83;47.81;99262.33;109378;1253;67026;-72
2023/06/04 04:30:56;;;;;;;4.50;4.10;;;;;;;20.65;47.10;99267.88;109398;1253;60885;-71
2023/06/04 04:33:26;;;;;;;4.90;4.40;;;;;;;20.69;47.08;99270.40;109365;1253;65409;-72
2023/06/04 04:35:53;;;;;;;6.60;4.50;;;;;;;20.90;46.24;99271.42;109319;1253;59416;-72
2023/06/04 04:38:23;;;;;;;5.70;4.30;;;;;;;20.95;45.68;99274.16;109365;1253;59268;-72
2023/06/04 04:40:51;;;;;;;6.20;4.90;;;;;;;21.03;45.70;99276.88;109356;1253;66104;-71
2023/06/04 04:43:32;;;;;;;4.90;4.20;;;;;;;21.23;45.47;99278.25;109450;1253;60019;-71
2023/06/04 04:45:59;;;;;;;5.00;4.50;;;;;;;21.45;44.85;99281.48;109376;1253;63769;-72
2023/06/04 04:48:26;;;;;;;5.90;4.00;;;;;;;21.63;44.57;99283.50;109089;1257;59482;-71
2023/06/04 04:50:53;;;;;;;4.80;4.30;;;;;;;21.74;43.84;99282.70;109396;1253;59045;-71
2023/06/04 04:53:20;;;;;;;5.60;4.60;;;;;;;21.76;43.49;99281.70;109388;1253;67088;-72
2023/06/04 04:55:47;;;;;;;4.70;4.20;;;;;;;21.75;42.98;99282.98;109393;1253;61482;-72
2023/06/04 04:58:14;;;;;;;5.60;3.90;;;;;;;21.57;42.42;99281.23;109326;1253;65663;-71
2023/06/04 05:00:42;;;;;;;8.60;4.40;;;;;;;21.52;42.85;99286.13;109374;1253;59001;-71
2023/06/04 05:03:08;;;;;;;4.80;4.10;;;;;;;21.67;42.75;99283.21;109430;1253;59010;-72
2023/06/04 05:05:35;;;;;;;6.80;4.10;;;;;;;21.77;42.52;99285.02;109380;1253;66921;-72
2023/06/04 05:08:02;;;;;;;6.70;4.70;;;;;;;21.88;42.37;99286.95;109390;1253;60106;-71
2023/06/04 05:10:28;;;;;;;6.00;4.30;;;;;;;22.04;42.21;99291.35;109372;1253;65196;-71
2023/06/04 05:12:58;;;;;;;5.50;4.30;;;;;;;22.10;41.74;99292.84;109342;1253;59506;-72
2023/06/04 05:15:26;;;;;;;5.00;4.10;;;;;;;22.04;41.15;99292.40;109421;1253;59233;-71
2023/06/04 05:17:53;;;;;;;5.80;4.40;;;;;;;21.86;40.91;99293.61;109344;1253;66769;-71
2023/06/04 05:20:20;;;;;;;4.60;4.10;;;;;;;21.69;41.01;99297.11;109403;1253;60996;-72
2023/06/04 05:22:47;;;;;;;4.40;3.30;;;;;;;21.63;41.09;99298.87;109363;1253;64860;-73
2023/06/04 05:25:14;;;;;;;5.70;4.00;;;;;;;21.61;40.70;99296.92;109355;1253;59022;-71
2023/06/04 05:27:41;;;;;;;4.30;3.70;;;;;;;21.55;40.82;99299.38;109444;1253;58913;-71
2023/06/04 05:30:08;;;;;;;5.00;4.50;;;;;;;21.51;40.60;99304.30;109365;1253;65850;-71
2023/06/04 05:32:40;;;;;;;4.50;4.00;;;;;;;21.57;41.06;99302.10;109365;1253;61233;-72
2023/06/04 05:35:08;;;;;;;5.30;4.00;;;;;;;21.88;41.16;99299.93;109372;1253;65076;-71
2023/06/04 05:37:37;;;;;;;6.40;4.00;;;;;;;22.14;40.66;99303.04;109070;1253;58998;-71
2023/06/04 05:40:05;;;;;;;;;;;;;;;22.34;40.85;99300.76;109398;1253;59098;-71
2023/06/04 05:42:32;;;;;;;4.90;4.00;;;;;;;22.59;40.81;99299.70;109361;1253;65897;-71
2023/06/04 05:44:58;;;;;;;4.90;3.70;;;;;;;22.82;40.47;99296.60;109370;1253;59813;-71
2023/06/04 05:47:28;;;;;;;4.90;3.50;;;;;;;23.01;40.32;99297.37;109339;1253;64053;-72
2023/06/04 05:49:55;;;;;;;;;;;;;;;23.16;39.99;99298.59;109397;1253;58979;-72
2023/06/04 05:52:21;;;;;;;7.20;4.40;;;;;;;23.32;39.60;99302.32;109380;1253;59102;-72
2023/06/04 05:54:48;;;;;;;4.80;3.70;;;;;;;23.25;39.03;99304.39;109063;1253;66915;-72
2023/06/04 05:57:15;;;;;;;5.30;3.50;;;;;;;23.18;39.07;99301.02;109405;1253;60107;-72
2023/06/04 05:59:42;;;;;;;4.40;3.70;;;;;;;23.23;38.81;99308.59;109347;1253;65101;-72
2023/06/04 06:02:08;;;;;;;5.20;4.10;;;;;;;23.08;38.24;99308.34;109379;1253;59077;-72
2023/06/04 06:04:35;;;;;;;9.40;3.80;;;;;;;22.98;38.27;99312.02;109378;1253;59027;-81
2023/06/04 06:07:01;;;;;;;4.70;3.60;;;;;;;22.91;38.19;99311.31;109370;1253;66141;-73
2023/06/04 06:09:28;;;;;;;4.80;4.20;;;;;;;22.85;38.12;99314.38;109103;1253;61438;-72
2023/06/04 06:11:54;;;;;;;4.70;3.50;;;;;;;22.80;38.13;99313.48;109045;1253;63008;-72
2023/06/04 06:14:23;;;;;;;4.80;3.50;;;;;;;22.78;38.16;99316.57;109377;1254;58950;-71
2023/06/04 06:16:50;;;;;;;4.40;3.10;;;;;;;22.72;38.21;99321.27;109392;1253;58985;-72
2023/06/04 06:19:17;;;;;;;4.30;3.40;;;;;;;22.74;38.41;99322.79;109370;1253;65804;-72
2023/06/04 06:21:43;;;;;;;4.30;3.90;;;;;;;22.72;38.41;99320.16;109376;1253;60754;-73
2023/06/04 06:24:10;;;;;;;3.80;3.40;;;;;;;22.74;38.61;99313.93;109396;1253;64237;-72
2023/06/04 06:26:37;;;;;;;6.50;4.00;;;;;;;22.85;38.77;99313.98;109363;1253;59002;-71
2023/06/04 06:29:03;;;;;;;6.60;3.10;;;;;;;22.96;38.54;99311.50;109345;1253;59018;-72
2023/06/04 06:31:30;;;;;;;4.00;3.30;;;;;;;22.98;38.31;99312.67;109349;1253;66763;-72
2023/06/04 06:33:57;;;;;;;4.10;3.20;;;;;;;22.84;38.12;99310.61;109418;1253;59001;-73
2023/06/04 06:36:23;;;;;;;4.40;3.20;;;;;;;22.70;38.17;99314.45;109364;1253;63676;-70
2023/06/04 06:38:50;;;;;;;4.70;2.90;;;;;;;22.50;38.00;99319.00;109029;1259;59045;-74
2023/06/04 06:41:17;;;;;;;5.80;3.50;;;;;;;22.29;38.29;99320.14;109314;1253;140810;-72
2023/06/04 06:43:44;;;;;;;4.50;2.80;;;;;;;22.20;38.75;99320.94;109405;1253;67239;-72
2023/06/04 06:46:10;;;;;;;3.80;3.00;;;;;;;22.14;38.67;99325.02;109390;1253;61463;-73
2023/06/04 06:48:37;;;;;;;4.80;2.90;;;;;;;21.99;38.77;99325.91;109377;1255;65104;-73
2023/06/04 06:51:04;;;;;;;3.30;2.80;;;;;;;21.94;38.89;99329.88;109399;1253;58952;-71
2023/06/04 06:53:30;;;;;;;3.90;2.70;;;;;;;21.75;38.87;99334.33;109390;1254;59048;-71
2023/06/04 06:55:57;;;;;;;3.70;3.20;;;;;;;21.65;39.33;99333.86;109096;1253;65904;-71
2023/06/04 06:58:23;;;;;;;4.20;3.00;;;;;;;21.73;39.42;99338.33;109395;1253;60124;-71
2023/06/04 07:00:50;;;;;;;3.50;2.90;;;;;;;21.91;39.75;99339.23;109383;1253;64740;-73
2023/06/04 07:03:17;;;;;;;4.60;3.00;;;;;;;22.15;39.95;99330.31;109334;1253;59040;-72
2023/06/04 07:05:44;;;;;;;3.10;2.70;;;;;;;22.36;39.79;99333.06;109377;1253;59052;-72
2023/06/04 07:08:10;;;;;;;5.50;2.70;;;;;;;22.48;39.49;99330.13;109381;1253;67173;-72
2023/06/04 07:10:37;;;;;;;3.10;2.80;;;;;;;22.58;39.31;99328.80;109396;1253;61235;-72
2023/06/04 07:13:03;;;;;;;3.80;2.40;;;;;;;22.65;39.42;99324.78;109367;1253;65182;-72
2023/06/04 07:15:30;;;;;;;3.60;2.50;;;;;;;22.66;39.04;99328.65;109409;1253;58984;-72
2023/06/04 07:17:57;;;;;;;4.50;2.70;;;;;;;22.51;38.20;99332.01;109387;1253;59128;-73
2023/06/04 07:20:23;;;;;;;3.20;2.60;;;;;;;22.13;37.78;99324.75;109385;1253;66766;-72
2023/06/04 07:22:50;;;;;;;3.30;2.20;;;;;;;21.82;38.16;99323.76;109430;1253;60707;-71
2023/06/04 07:25:16;;;;;;;5.10;2.70;;;;;;;21.74;38.28;99323.37;109383;1253;64300;-73
2023/06/04 07:27:43;;;;;;;3.10;2.00;;;;;;;21.57;38.37;99320.81;109370;1253;59044;-71
2023/06/04 07:30:10;;;;;;;3.90;2.30;;;;;;;21.35;39.13;99321.40;109317;1253;59031;-75
2023/06/04 07:32:36;;;;;;;3.90;2.30;;;;;;;21.19;39.18;99322.37;109375;1253;67052;-75
2023/06/04 07:35:03;;;;;;;6.10;2.60;;;;;;;21.04;39.52;99323.55;109402;1254;61134;-72
2023/06/04 07:37:30;;;;;;;5.40;2.30;;;;;;;20.96;39.70;99321.52;109365;1253;64084;-73
2023/06/04 07:39:57;;;;;;;4.50;2.30;;;;;;;20.91;39.74;99321.56;109438;1253;59051;-77
2023/06/04 07:42:23;;;;;;;3.30;2.20;;;;;;;20.82;39.86;99322.29;109384;1253;59019;-70
2023/06/04 07:44:50;;;;;;;3.40;2.10;;;;;;;20.76;39.91;99324.18;109418;1253;67075;-71
2023/06/04 07:47:16;;;;;;;3.30;1.90;;;;;;;20.68;39.22;99326.70;109423;1253;59821;-72
2023/06/04 07:49:43;;;;;;;3.50;2.10;;;;;;;20.58;39.07;99321.15;109409;1253;65043;-72
2023/06/04 07:52:09;;;;;;;4.00;2.10;;;;;;;20.46;39.20;99325.41;109396;1253;59003;-71
2023/06/04 07:54:36;;;;;;;4.90;1.80;;;;;;;20.34;38.95;99330.94;109378;1253;59156;-71
2023/06/04 07:57:03;;;;;;;2.60;1.60;;;;;;;20.32;38.92;99327.05;109407;1253;67164;-72
2023/06/04 07:59:29;;;;;;;3.00;1.80;;;;;;;20.31;39.14;99329.45;109438;1253;61063;-72
2023/06/04 08:01:56;;;;;;;4.00;1.60;;;;;;;20.33;38.64;99331.63;109412;1253;64134;-72
2023/06/04 08:04:23;;;;;;;3.10;1.70;;;;;;;20.28;38.53;99333.35;109426;1253;59176;-72
2023/06/04 08:06:49;;;;;;;2.40;1.60;;;;;;;20.26;38.40;99332.31;109403;1253;58910;-73
2023/06/04 08:09:16;;;;;;;3.60;1.80;;;;;;;20.29;38.84;99336.20;109371;1254;66819;-70
2023/06/04 08:11:44;;;;;;;2.10;1.90;;;;;;;20.46;38.83;99337.20;109417;1253;61210;-72
2023/06/04 08:14:12;;;;;;;6.50;1.90;;;;;;;20.62;38.44;99339.38;108988;1253;63980;-73
2023/06/04 08:16:40;;;;;;;2.30;1.60;;;;;;;20.69;37.48;99339.16;109045;1253;59081;-72
2023/06/04 08:19:07;;;;;;;4.10;1.70;;;;;;;20.62;36.85;99340.77;109436;1253;59101;-73
2023/06/04 08:21:35;;;;;;;3.30;1.30;;;;;;;20.52;36.98;99339.10;109306;1253;66973;-72
2023/06/04 08:24:02;;;;;;;2.90;1.60;;;;;;;20.53;37.10;99340.76;109087;1253;61172;-73
2023/06/04 08:26:29;;;;;;;2.90;1.80;;;;;;;20.58;37.33;99342.21;109373;1253;63737;-73
2023/06/04 08:28:55;;;;;;;4.30;1.60;;;;;;;20.74;37.77;99340.02;109411;1253;59036;-73
2023/06/04 08:31:22;;;;;;;2.70;1.60;;;;;;;20.88;37.26;99341.12;109395;1253;59024;-72
2023/06/04 08:33:49;;;;;;;2.90;1.80;;;;;;;20.84;36.95;99337.61;109432;1253;67133;-71
2023/06/04 08:36:16;;;;;;;3.80;1.40;;;;;;;20.82;36.48;99339.63;109425;1253;58965;-71
2023/06/04 08:38:42;;;;;;;2.80;1.50;;;;;;;20.67;35.83;99339.33;109448;1253;64073;-72
2023/06/04 08:41:27;;;;;;;3.70;1.20;;;;;;;20.65;36.48;99339.95;109443;1253;58942;-72
2023/06/04 08:43:57;;;;;;;4.20;1.80;;;;;;;20.85;36.68;99337.17;109427;1253;59015;-71
2023/06/04 08:46:25;;;;;;;4.60;1.80;;;;;;;21.03;36.54;99334.87;109421;1253;65962;-72
2023/06/04 08:48:52;;;;;;;4.60;1.60;;;;;;;21.18;36.44;99332.77;109393;1253;60651;-73
2023/06/04 08:51:19;;;;;;;4.10;1.50;;;;;;;21.28;36.06;99335.87;109431;1253;65008;-72
2023/06/04 08:53:49;;;;;;;3.50;1.60;;;;;;;21.22;35.47;99333.20;109199;1253;58950;-71
2023/06/04 08:56:17;;;;;;;2.40;1.70;;;;;;;21.14;35.48;99335.19;109386;1253;59067;-72
2023/06/04 08:58:44;;;;;;;2.30;1.60;;;;;;;21.16;35.40;99339.27;109432;1253;67021;-72
2023/06/04 09:01:11;;;;;;;2.60;1.30;;;;;;;21.29;35.47;99340.98;109476;1253;59380;-71
2023/06/04 09:03:38;;;;;;;2.90;1.50;;;;;;;21.39;34.88;99335.77;109450;1253;64036;-72
2023/06/04 09:06:05;;;;;;;4.80;1.40;;;;;;;21.45;35.06;99338.40;109453;1253;60091;-73
2023/06/04 09:08:36;;;;;;;2.20;1.30;;;;;;;21.50;34.12;99342.77;109415;1253;59048;-72
2023/06/04 09:11:09;;;;;;;3.10;1.50;;;;;;;21.46;34.35;99340.61;109483;1253;67140;-72
2023/06/04 09:13:35;;;;;;;3.70;1.50;;;;;;;21.56;34.30;99342.00;109396;1253;60138;-71
2023/06/04 09:16:05;;;;;;;1.70;1.30;;;;;;;21.62;34.09;99345.86;109388;1253;65090;-72
2023/06/04 09:18:32;;;;;;;1.40;1.30;;;;;;;21.73;34.60;99346.29;109390;1253;58975;-71
2023/06/04 09:21:05;;;;;;;2.30;1.10;;;;;;;21.93;34.69;99340.70;109066;1253;59371;-70
2023/06/04 09:23:35;;;;;;;3.30;1.70;;;;;;;22.05;34.25;99344.20;109430;1253;67212;-72
2023/06/04 09:26:12;;;;;;;3.30;1.50;;;;;;;22.08;33.80;99346.19;109441;1253;61121;-71
2023/06/04 09:28:42;;;;;;;3.40;1.50;;;;;;;22.04;33.59;99346.89;109407;1253;64139;-72
2023/06/04 09:31:13;;;;;;;2.20;1.40;;;;;;;22.03;34.20;99342.96;109202;1253;58958;-72
2023/06/04 09:33:44;;;;;;;3.20;1.20;;;;;;;22.16;33.99;99342.16;109452;1253;59182;-72
2023/06/04 09:36:11;;;;;;;1.60;1.50;;;;;;;22.20;33.71;99340.63;109420;1253;66070;-70
2023/06/04 09:38:38;;;;;;;3.50;1.40;;;;;;;22.09;33.10;99341.79;109414;1253;61122;-70
2023/06/04 09:41:11;;;;;;;2.80;1.30;;;;;;;21.91;33.28;99342.80;109170;1253;65328;-70
2023/06/04 09:43:38;;;;;;;2.70;1.40;;;;;;;21.94;33.99;99344.88;109157;1253;58992;-72
2023/06/04 09:46:15;;;;;;;2.00;1.50;;;;;;;22.04;33.56;99346.34;109124;1253;59076;-71
2023/06/04 09:48:43;;;;;;;2.30;1.50;;;;;;;22.02;33.55;99341.15;109441;1253;67038;-71
2023/06/04 09:51:19;;;;;;;2.40;1.40;;;;;;;22.04;33.64;99339.09;109274;1253;61060;-72
2023/06/04 09:53:57;;;;;;;2.60;1.30;;;;;;;22.16;33.70;99333.09;109448;1253;64040;-70
2023/06/04 09:56:24;;;;;;;2.10;1.40;;;;;;;22.29;34.18;99331.08;109407;1253;59133;-73
2023/06/04 09:58:56;;;;;;;3.10;1.60;;;;;;;22.43;33.75;99329.42;109485;1253;59040;-71
2023/06/04 10:01:26;;;;;;;2.60;1.50;;;;;;;22.43;33.88;99330.00;109451;1253;67048;-72
2023/06/04 10:03:53;;;;;;;2.00;1.50;;;;;;;22.50;33.87;99323.92;109459;1253;61279;-72
2023/06/04 10:06:21;;;;;;;3.80;2.00;;;;;;;22.60;33.94;99324.61;109414;1253;73610;-70
2023/06/04 10:08:49;;;;;;;2.90;1.50;;;;;;;22.73;34.45;99324.90;109428;1253;58952;-71
2023/06/04 10:11:26;;;;;;;4.70;1.90;;;;;;;22.82;34.21;99326.83;109410;1253;59408;-72
2023/06/04 10:14:17;;;;;;;5.80;2.00;;;;;;;22.84;34.17;99323.23;109456;1253;67529;-72
2023/06/04 10:16:45;;;;;;;3.60;1.90;;;;;;;22.81;33.91;99324.66;109467;1253;60331;-71
2023/06/04 10:19:12;;;;;;;3.00;1.40;;;;;;;22.71;33.66;99328.10;109458;1253;63709;-72
2023/06/04 10:21:39;;;;;;;3.20;1.50;;;;;;;22.62;33.71;99321.52;109405;1253;58935;-72
2023/06/04 10:24:07;;;;;;;3.70;1.70;;;;;;;22.67;34.08;99320.50;109515;1253;59070;-72
2023/06/04 10:26:35;;;;;;;2.30;2.10;;;;;;;22.79;34.14;99321.56;109437;1253;67034;-72
2023/06/04 10:29:02;;;;;;;2.20;1.60;;;;;;;22.95;34.30;99323.39;109472;1253;61053;-71
2023/06/04 10:31:30;;;;;;;3.70;1.80;;;;;;;22.97;33.68;99324.58;109405;1253;65132;-72
2023/06/04 10:33:57;;;;;;;2.50;1.70;;;;;;;22.89;33.41;99320.96;109404;1253;58948;-70
2023/06/04 10:36:25;;;;;;;3.00;1.50;;;;;;;22.84;33.51;99322.23;109439;1253;58942;-72
2023/06/04 10:38:53;;;;;;;4.70;1.60;;;;;;;22.87;33.51;99321.03;109464;1253;64775;-71
2023/06/04 10:41:23;;;;;;;3.50;1.70;;;;;;;22.87;33.16;99316.86;109468;1253;60935;-71
2023/06/04 10:43:52;;;;;;;3.30;1.90;;;;;;;22.73;32.96;99318.08;109425;1253;64248;-72
2023/06/04 10:46:20;;;;;;;2.10;1.50;;;;;;;22.59;33.23;99323.80;109400;1253;59130;-73
2023/06/04 10:48:51;;;;;;;2.70;1.60;;;;;;;22.64;33.57;99322.14;109423;1253;59173;-72
2023/06/04 10:51:31;;;;;;;3.50;1.60;;;;;;;22.82;34.27;99319.22;109022;1253;64465;-72
2023/06/04 10:53:59;;;;;;;1.70;1.20;;;;;;;23.10;34.74;99315.70;109437;1253;61011;-72
2023/06/04 10:56:27;;;;;;;2.90;2.10;;;;;;;23.35;34.75;99318.63;109408;1253;65309;-71
2023/06/04 10:58:54;;;;;;;5.00;2.30;;;;;;;23.57;34.55;99321.02;109417;1253;59036;-72
2023/06/04 11:01:26;;;;;;;4.70;2.00;;;;;;;23.68;34.34;99315.60;109448;1253;59015;-72
2023/06/04 11:03:53;;;;;;;2.80;1.80;;;;;;;23.79;34.03;99311.83;109417;1253;66279;-71
2023/06/04 11:06:21;;;;;;;3.70;2.00;;;;;;;23.82;33.82;99308.13;109428;1253;61278;-71
2023/06/04 11:08:48;;;;;;;3.60;2.10;;;;;;;23.86;33.50;99306.36;109027;1253;66219;-72
2023/06/04 11:11:15;;;;;;;3.80;1.90;;;;;;;23.82;33.04;99305.54;109038;1253;59141;-72
2023/06/04 11:13:43;;;;;;;2.80;1.60;;;;;;;23.71;32.36;99305.63;109484;1253;59053;-72
2023/06/04 11:16:20;;;;;;;4.10;2.00;;;;;;;23.64;32.97;99303.17;109150;1253;66891;-72
2023/06/04 11:18:57;;;;;;;3.00;1.70;;;;;;;23.71;32.66;99298.05;109465;1253;60151;-72
2023/06/04 11:21:24;;;;;;;4.00;2.00;;;;;;;23.81;32.84;99293.50;109039;1253;64232;-72
2023/06/04 11:24:00;;;;;;;2.90;1.60;;;;;;;23.90;32.60;99297.42;109453;1253;59208;-72
2023/06/04 11:26:34;;;;;;;2.60;1.70;;;;;;;23.93;32.44;99297.61;109439;1253;59061;-71
2023/06/04 11:29:06;;;;;;;3.20;1.80;;;;;;;23.95;33.09;99296.05;109418;1253;65776;-71
2023/06/04 11:31:44;;;;;;;2.60;1.70;;;;;;;24.08;33.71;99299.05;109401;1253;61317;-72
2023/06/04 11:34:21;;;;;;;4.80;1.90;;;;;;;24.15;32.88;99302.30;109209;1253;64248;-72
2023/06/04 11:36:49;;;;;;;5.30;1.80;;;;;;;24.09;32.65;99298.77;109128;1253;59363;-71